sensor_id;sensor_type;location;lat;lon;timestamp;temperature;humidity
4910;DHT22;2470;49.868;8.660;2023-07-13T00:00:23;22.90;56.90
4910;DHT22;2470;49.868;8.660;2023-07-13T00:02:48;22.80;57.00
4910;DHT22;2470;49.868;8.660;2023-07-13T00:05:14;22.70;57.20
4910;DHT22;2470;49.868;8.660;2023-07-13T00:07:39;22.70;57.60
4910;DHT22;2470;49.868;8.660;2023-07-13T00:10:05;22.70;57.50
4910;DHT22;2470;49.868;8.660;2023-07-13T00:12:34;22.70;57.70
4910;DHT22;2470;49.868;8.660;2023-07-13T00:15:04;22.70;57.40
4910;DHT22;2470;49.868;8.660;2023-07-13T00:17:29;22.60;57.80
4910;DHT22;2470;49.868;8.660;2023-07-13T00:19:56;22.60;57.60
4910;DHT22;2470;49.868;8.660;2023-07-13T00:22:23;22.60;57.70
4910;DHT22;2470;49.868;8.660;2023-07-13T00:24:51;22.60;58.20
4910;DHT22;2470;49.868;8.660;2023-07-13T00:27:17;22.50;57.50
4910;DHT22;2470;49.868;8.660;2023-07-13T00:29:43;22.50;57.50
4910;DHT22;2470;49.868;8.660;2023-07-13T00:32:10;22.40;57.80
4910;DHT22;2470;49.868;8.660;2023-07-13T00:34:37;22.30;58.10
4910;DHT22;2470;49.868;8.660;2023-07-13T00:37:04;22.30;58.40
4910;DHT22;2470;49.868;8.660;2023-07-13T00:39:35;22.30;58.40
4910;DHT22;2470;49.868;8.660;2023-07-13T00:42:02;22.30;58.50
4910;DHT22;2470;49.868;8.660;2023-07-13T00:44:28;22.30;58.70
4910;DHT22;2470;49.868;8.660;2023-07-13T00:46:53;22.30;58.40
4910;DHT22;2470;49.868;8.660;2023-07-13T00:49:22;22.20;58.50
4910;DHT22;2470;49.868;8.660;2023-07-13T00:52:02;22.10;59.30
4910;DHT22;2470;49.868;8.660;2023-07-13T00:54:34;22.10;59.40
4910;DHT22;2470;49.868;8.660;2023-07-13T00:57:04;22.00;59.40
4910;DHT22;2470;49.868;8.660;2023-07-13T00:59:31;22.00;59.50
4910;DHT22;2470;49.868;8.660;2023-07-13T01:01:59;22.00;59.90
4910;DHT22;2470;49.868;8.660;2023-07-13T01:04:25;22.00;59.70
4910;DHT22;2470;49.868;8.660;2023-07-13T01:06:51;22.00;59.80
4910;DHT22;2470;49.868;8.660;2023-07-13T01:09:17;22.00;60.30
4910;DHT22;2470;49.868;8.660;2023-07-13T01:11:43;22.00;60.50
4910;DHT22;2470;49.868;8.660;2023-07-13T01:14:10;22.00;60.10
4910;DHT22;2470;49.868;8.660;2023-07-13T01:16:37;21.90;60.10
4910;DHT22;2470;49.868;8.660;2023-07-13T01:19:12;21.90;60.20
4910;DHT22;2470;49.868;8.660;2023-07-13T01:21:40;21.90;60.50
4910;DHT22;2470;49.868;8.660;2023-07-13T01:24:08;21.80;60.90
4910;DHT22;2470;49.868;8.660;2023-07-13T01:26:34;21.80;60.90
4910;DHT22;2470;49.868;8.660;2023-07-13T01:29:00;21.80;60.80
4910;DHT22;2470;49.868;8.660;2023-07-13T01:31:25;21.70;61.00
4910;DHT22;2470;49.868;8.660;2023-07-13T01:33:51;21.70;60.90
4910;DHT22;2470;49.868;8.660;2023-07-13T01:36:17;21.70;61.20
4910;DHT22;2470;49.868;8.660;2023-07-13T01:38:42;21.60;61.00
4910;DHT22;2470;49.868;8.660;2023-07-13T01:41:08;21.60;61.30
4910;DHT22;2470;49.868;8.660;2023-07-13T01:43:33;21.60;61.70
4910;DHT22;2470;49.868;8.660;2023-07-13T01:45:59;21.50;61.60
4910;DHT22;2470;49.868;8.660;2023-07-13T01:48:24;21.50;61.70
4910;DHT22;2470;49.868;8.660;2023-07-13T01:50:50;21.40;61.90
4910;DHT22;2470;49.868;8.660;2023-07-13T01:53:16;21.40;62.20
4910;DHT22;2470;49.868;8.660;2023-07-13T01:55:41;21.30;62.10
4910;DHT22;2470;49.868;8.660;2023-07-13T01:58:07;21.30;62.30
4910;DHT22;2470;49.868;8.660;2023-07-13T02:00:33;21.20;62.30
4910;DHT22;2470;49.868;8.660;2023-07-13T02:02:59;21.20;62.30
4910;DHT22;2470;49.868;8.660;2023-07-13T02:05:25;21.20;63.10
4910;DHT22;2470;49.868;8.660;2023-07-13T02:07:50;21.20;62.80
4910;DHT22;2470;49.868;8.660;2023-07-13T02:10:16;21.10;62.80
4910;DHT22;2470;49.868;8.660;2023-07-13T02:12:42;21.10;62.80
4910;DHT22;2470;49.868;8.660;2023-07-13T02:15:08;21.00;63.00
4910;DHT22;2470;49.868;8.660;2023-07-13T02:17:35;20.90;63.00
4910;DHT22;2470;49.868;8.660;2023-07-13T02:20:01;20.90;63.50
4910;DHT22;2470;49.868;8.660;2023-07-13T02:22:27;20.90;63.40
4910;DHT22;2470;49.868;8.660;2023-07-13T02:24:52;20.90;63.50
4910;DHT22;2470;49.868;8.660;2023-07-13T02:27:18;20.90;63.90
4910;DHT22;2470;49.868;8.660;2023-07-13T02:29:49;20.90;63.80
4910;DHT22;2470;49.868;8.660;2023-07-13T02:32:18;20.90;63.70
4910;DHT22;2470;49.868;8.660;2023-07-13T02:34:44;20.90;63.90
4910;DHT22;2470;49.868;8.660;2023-07-13T02:37:09;20.80;64.00
4910;DHT22;2470;49.868;8.660;2023-07-13T02:39:35;20.90;64.40
4910;DHT22;2470;49.868;8.660;2023-07-13T02:42:01;20.90;64.60
4910;DHT22;2470;49.868;8.660;2023-07-13T02:44:27;21.00;64.70
4910;DHT22;2470;49.868;8.660;2023-07-13T02:46:53;21.00;64.70
4910;DHT22;2470;49.868;8.660;2023-07-13T02:49:18;21.00;64.30
4910;DHT22;2470;49.868;8.660;2023-07-13T02:51:44;20.80;64.10
4910;DHT22;2470;49.868;8.660;2023-07-13T02:54:10;20.80;64.90
4910;DHT22;2470;49.868;8.660;2023-07-13T02:56:37;20.80;64.70
4910;DHT22;2470;49.868;8.660;2023-07-13T02:59:04;20.70;64.60
4910;DHT22;2470;49.868;8.660;2023-07-13T03:01:30;20.70;64.30
4910;DHT22;2470;49.868;8.660;2023-07-13T03:03:57;20.70;64.50
4910;DHT22;2470;49.868;8.660;2023-07-13T03:06:23;20.60;65.10
4910;DHT22;2470;49.868;8.660;2023-07-13T03:08:49;20.60;64.90
4910;DHT22;2470;49.868;8.660;2023-07-13T03:11:18;20.50;65.10
4910;DHT22;2470;49.868;8.660;2023-07-13T03:13:44;20.50;64.90
4910;DHT22;2470;49.868;8.660;2023-07-13T03:16:10;20.50;65.10
4910;DHT22;2470;49.868;8.660;2023-07-13T03:18:37;20.40;65.00
4910;DHT22;2470;49.868;8.660;2023-07-13T03:21:03;20.40;65.50
4910;DHT22;2470;49.868;8.660;2023-07-13T03:23:29;20.40;65.40
4910;DHT22;2470;49.868;8.660;2023-07-13T03:26:12;20.40;65.40
4910;DHT22;2470;49.868;8.660;2023-07-13T03:28:39;20.30;65.70
4910;DHT22;2470;49.868;8.660;2023-07-13T03:31:10;20.40;66.20
4910;DHT22;2470;49.868;8.660;2023-07-13T03:33:37;20.50;66.30
4910;DHT22;2470;49.868;8.660;2023-07-13T03:36:04;20.50;66.10
4910;DHT22;2470;49.868;8.660;2023-07-13T03:38:29;20.40;66.10
4910;DHT22;2470;49.868;8.660;2023-07-13T03:40:55;20.40;66.10
4910;DHT22;2470;49.868;8.660;2023-07-13T03:43:21;20.50;66.30
4910;DHT22;2470;49.868;8.660;2023-07-13T03:45:47;20.50;66.50
4910;DHT22;2470;49.868;8.660;2023-07-13T03:48:13;20.50;66.50
4910;DHT22;2470;49.868;8.660;2023-07-13T03:50:38;20.50;66.60
4910;DHT22;2470;49.868;8.660;2023-07-13T03:53:04;20.50;66.60
4910;DHT22;2470;49.868;8.660;2023-07-13T03:55:30;20.50;66.50
4910;DHT22;2470;49.868;8.660;2023-07-13T03:58:22;20.50;66.30
4910;DHT22;2470;49.868;8.660;2023-07-13T04:00:45;20.50;66.30
4910;DHT22;2470;49.868;8.660;2023-07-13T04:03:11;20.50;66.70
4910;DHT22;2470;49.868;8.660;2023-07-13T04:05:36;20.50;66.80
4910;DHT22;2470;49.868;8.660;2023-07-13T04:08:02;20.60;66.50
4910;DHT22;2470;49.868;8.660;2023-07-13T04:10:28;20.50;66.20
4910;DHT22;2470;49.868;8.660;2023-07-13T04:12:53;20.50;65.90
4910;DHT22;2470;49.868;8.660;2023-07-13T04:15:19;20.50;66.90
4910;DHT22;2470;49.868;8.660;2023-07-13T04:17:44;20.50;66.50
4910;DHT22;2470;49.868;8.660;2023-07-13T04:20:10;20.50;67.10
4910;DHT22;2470;49.868;8.660;2023-07-13T04:22:35;20.50;67.50
4910;DHT22;2470;49.868;8.660;2023-07-13T04:25:01;20.50;66.90
4910;DHT22;2470;49.868;8.660;2023-07-13T04:27:26;20.50;66.80
4910;DHT22;2470;49.868;8.660;2023-07-13T04:29:53;20.50;66.90
4910;DHT22;2470;49.868;8.660;2023-07-13T04:32:19;20.50;66.50
4910;DHT22;2470;49.868;8.660;2023-07-13T04:34:44;20.50;66.50
4910;DHT22;2470;49.868;8.660;2023-07-13T04:37:10;20.60;66.40
4910;DHT22;2470;49.868;8.660;2023-07-13T04:39:35;20.60;66.50
4910;DHT22;2470;49.868;8.660;2023-07-13T04:42:01;20.60;65.90
4910;DHT22;2470;49.868;8.660;2023-07-13T04:44:27;20.60;65.90
4910;DHT22;2470;49.868;8.660;2023-07-13T04:46:52;20.60;66.30
4910;DHT22;2470;49.868;8.660;2023-07-13T04:49:18;20.60;66.40
4910;DHT22;2470;49.868;8.660;2023-07-13T04:51:44;20.70;65.80
4910;DHT22;2470;49.868;8.660;2023-07-13T04:54:09;20.60;65.60
4910;DHT22;2470;49.868;8.660;2023-07-13T04:56:35;20.60;65.80
4910;DHT22;2470;49.868;8.660;2023-07-13T04:59:00;20.60;65.80
4910;DHT22;2470;49.868;8.660;2023-07-13T05:01:26;20.60;66.20
4910;DHT22;2470;49.868;8.660;2023-07-13T05:03:51;20.70;65.80
4910;DHT22;2470;49.868;8.660;2023-07-13T05:06:17;20.70;65.90
4910;DHT22;2470;49.868;8.660;2023-07-13T05:08:42;20.80;66.40
4910;DHT22;2470;49.868;8.660;2023-07-13T05:11:08;20.90;66.10
4910;DHT22;2470;49.868;8.660;2023-07-13T05:13:33;20.90;66.00
4910;DHT22;2470;49.868;8.660;2023-07-13T05:16:01;21.00;66.20
4910;DHT22;2470;49.868;8.660;2023-07-13T05:18:28;21.00;65.50
4910;DHT22;2470;49.868;8.660;2023-07-13T05:21:03;21.00;64.50
4910;DHT22;2470;49.868;8.660;2023-07-13T05:23:29;21.00;65.10
4910;DHT22;2470;49.868;8.660;2023-07-13T05:25:56;21.00;65.30
4910;DHT22;2470;49.868;8.660;2023-07-13T05:28:21;21.10;65.10
4910;DHT22;2470;49.868;8.660;2023-07-13T05:30:48;21.00;64.70
4910;DHT22;2470;49.868;8.660;2023-07-13T05:33:14;21.10;65.30
4910;DHT22;2470;49.868;8.660;2023-07-13T05:35:40;21.10;64.10
4910;DHT22;2470;49.868;8.660;2023-07-13T05:38:05;21.10;64.00
4910;DHT22;2470;49.868;8.660;2023-07-13T05:40:31;21.10;64.20
4910;DHT22;2470;49.868;8.660;2023-07-13T05:42:57;21.10;64.40
4910;DHT22;2470;49.868;8.660;2023-07-13T05:45:22;21.20;64.00
4910;DHT22;2470;49.868;8.660;2023-07-13T05:47:48;21.30;64.10
4910;DHT22;2470;49.868;8.660;2023-07-13T05:50:13;21.30;63.60
4910;DHT22;2470;49.868;8.660;2023-07-13T05:52:39;21.30;63.80
4910;DHT22;2470;49.868;8.660;2023-07-13T05:55:04;21.30;63.40
4910;DHT22;2470;49.868;8.660;2023-07-13T05:57:30;21.30;63.70
4910;DHT22;2470;49.868;8.660;2023-07-13T05:59:57;21.40;64.00
4910;DHT22;2470;49.868;8.660;2023-07-13T06:02:22;21.40;63.30
4910;DHT22;2470;49.868;8.660;2023-07-13T06:04:48;21.40;63.50
4910;DHT22;2470;49.868;8.660;2023-07-13T06:07:14;21.50;63.40
4910;DHT22;2470;49.868;8.660;2023-07-13T06:09:39;21.50;63.20
4910;DHT22;2470;49.868;8.660;2023-07-13T06:12:05;21.50;62.90
4910;DHT22;2470;49.868;8.660;2023-07-13T06:14:31;21.50;63.00
4910;DHT22;2470;49.868;8.660;2023-07-13T06:16:56;21.50;63.20
4910;DHT22;2470;49.868;8.660;2023-07-13T06:19:22;21.70;63.00
4910;DHT22;2470;49.868;8.660;2023-07-13T06:21:47;21.80;62.90
4910;DHT22;2470;49.868;8.660;2023-07-13T06:24:13;21.80;62.90
4910;DHT22;2470;49.868;8.660;2023-07-13T06:26:38;22.00;62.20
4910;DHT22;2470;49.868;8.660;2023-07-13T06:29:04;22.00;61.80
4910;DHT22;2470;49.868;8.660;2023-07-13T06:31:30;22.00;61.90
4910;DHT22;2470;49.868;8.660;2023-07-13T06:33:56;22.10;60.80
4910;DHT22;2470;49.868;8.660;2023-07-13T06:36:21;22.00;60.90
4910;DHT22;2470;49.868;8.660;2023-07-13T06:38:47;22.00;61.30
4910;DHT22;2470;49.868;8.660;2023-07-13T06:41:12;22.00;61.60
4910;DHT22;2470;49.868;8.660;2023-07-13T06:43:38;22.10;61.40
4910;DHT22;2470;49.868;8.660;2023-07-13T06:46:03;22.10;62.00
4910;DHT22;2470;49.868;8.660;2023-07-13T06:48:29;22.20;62.30
4910;DHT22;2470;49.868;8.660;2023-07-13T06:50:55;22.30;62.20
4910;DHT22;2470;49.868;8.660;2023-07-13T06:53:21;22.30;62.00
4910;DHT22;2470;49.868;8.660;2023-07-13T06:55:48;22.30;61.90
4910;DHT22;2470;49.868;8.660;2023-07-13T06:58:15;22.40;61.20
4910;DHT22;2470;49.868;8.660;2023-07-13T07:00:40;22.40;61.50
4910;DHT22;2470;49.868;8.660;2023-07-13T07:03:06;22.40;62.00
4910;DHT22;2470;49.868;8.660;2023-07-13T07:05:32;22.40;61.80
4910;DHT22;2470;49.868;8.660;2023-07-13T07:07:59;22.50;62.20
4910;DHT22;2470;49.868;8.660;2023-07-13T07:10:30;22.60;62.10
4910;DHT22;2470;49.868;8.660;2023-07-13T07:12:55;22.70;61.70
4910;DHT22;2470;49.868;8.660;2023-07-13T07:15:21;22.70;61.40
4910;DHT22;2470;49.868;8.660;2023-07-13T07:17:46;22.70;62.20
4910;DHT22;2470;49.868;8.660;2023-07-13T07:20:12;22.80;61.80
4910;DHT22;2470;49.868;8.660;2023-07-13T07:22:38;22.90;61.10
4910;DHT22;2470;49.868;8.660;2023-07-13T07:25:04;22.90;61.10
4910;DHT22;2470;49.868;8.660;2023-07-13T07:27:30;22.90;60.90
4910;DHT22;2470;49.868;8.660;2023-07-13T07:29:55;22.90;60.80
4910;DHT22;2470;49.868;8.660;2023-07-13T07:32:23;22.90;60.10
4910;DHT22;2470;49.868;8.660;2023-07-13T07:34:49;23.00;60.00
4910;DHT22;2470;49.868;8.660;2023-07-13T07:37:14;23.10;59.60
4910;DHT22;2470;49.868;8.660;2023-07-13T07:39:40;23.20;59.30
4910;DHT22;2470;49.868;8.660;2023-07-13T07:42:06;23.20;59.70
4910;DHT22;2470;49.868;8.660;2023-07-13T07:44:32;23.20;59.30
4910;DHT22;2470;49.868;8.660;2023-07-13T07:46:58;23.30;59.30
4910;DHT22;2470;49.868;8.660;2023-07-13T07:49:24;23.30;59.00
4910;DHT22;2470;49.868;8.660;2023-07-13T07:51:50;23.40;58.90
4910;DHT22;2470;49.868;8.660;2023-07-13T07:54:16;23.40;58.70
4910;DHT22;2470;49.868;8.660;2023-07-13T07:56:41;23.50;58.40
4910;DHT22;2470;49.868;8.660;2023-07-13T07:59:07;23.70;59.50
4910;DHT22;2470;49.868;8.660;2023-07-13T08:01:32;23.90;58.30
4910;DHT22;2470;49.868;8.660;2023-07-13T08:03:58;23.90;58.00
4910;DHT22;2470;49.868;8.660;2023-07-13T08:06:24;23.80;58.20
4910;DHT22;2470;49.868;8.660;2023-07-13T08:08:49;23.80;58.10
4910;DHT22;2470;49.868;8.660;2023-07-13T08:11:16;23.70;58.30
4910;DHT22;2470;49.868;8.660;2023-07-13T08:13:42;23.70;58.50
4910;DHT22;2470;49.868;8.660;2023-07-13T08:16:07;23.70;59.20
4910;DHT22;2470;49.868;8.660;2023-07-13T08:18:33;23.60;58.60
4910;DHT22;2470;49.868;8.660;2023-07-13T08:21:05;23.70;58.80
4910;DHT22;2470;49.868;8.660;2023-07-13T08:23:31;23.70;58.70
4910;DHT22;2470;49.868;8.660;2023-07-13T08:25:57;23.80;58.20
4910;DHT22;2470;49.868;8.660;2023-07-13T08:28:23;23.80;58.30
4910;DHT22;2470;49.868;8.660;2023-07-13T08:30:49;23.80;58.10
4910;DHT22;2470;49.868;8.660;2023-07-13T08:33:22;23.70;58.00
4910;DHT22;2470;49.868;8.660;2023-07-13T08:35:49;23.70;58.70
4910;DHT22;2470;49.868;8.660;2023-07-13T08:38:16;23.70;57.90
4910;DHT22;2470;49.868;8.660;2023-07-13T08:40:43;23.60;58.40
4910;DHT22;2470;49.868;8.660;2023-07-13T08:43:16;23.80;58.40
4910;DHT22;2470;49.868;8.660;2023-07-13T08:45:50;23.80;58.20
4910;DHT22;2470;49.868;8.660;2023-07-13T08:48:25;23.90;58.30
4910;DHT22;2470;49.868;8.660;2023-07-13T08:53:24;24.20;57.00
4910;DHT22;2470;49.868;8.660;2023-07-13T08:55:58;24.30;56.50
4910;DHT22;2470;49.868;8.660;2023-07-13T08:58:25;24.30;56.10
4910;DHT22;2470;49.868;8.660;2023-07-13T09:01:16;24.30;55.70
4910;DHT22;2470;49.868;8.660;2023-07-13T09:04:06;24.30;55.80
4910;DHT22;2470;49.868;8.660;2023-07-13T09:10:26;24.40;55.40
4910;DHT22;2470;49.868;8.660;2023-07-13T09:15:32;24.50;55.00
4910;DHT22;2470;49.868;8.660;2023-07-13T09:23:22;24.30;55.30
4910;DHT22;2470;49.868;8.660;2023-07-13T09:25:51;24.30;55.90
4910;DHT22;2470;49.868;8.660;2023-07-13T09:28:27;24.30;55.70
4910;DHT22;2470;49.868;8.660;2023-07-13T09:31:07;24.30;55.30
4910;DHT22;2470;49.868;8.660;2023-07-13T09:33:35;24.20;55.60
4910;DHT22;2470;49.868;8.660;2023-07-13T09:36:01;24.00;55.60
4910;DHT22;2470;49.868;8.660;2023-07-13T09:38:29;23.90;55.90
4910;DHT22;2470;49.868;8.660;2023-07-13T09:43:35;24.00;56.40
4910;DHT22;2470;49.868;8.660;2023-07-13T09:46:01;24.20;56.30
4910;DHT22;2470;49.868;8.660;2023-07-13T09:48:36;24.40;55.50
4910;DHT22;2470;49.868;8.660;2023-07-13T09:51:14;24.60;55.30
4910;DHT22;2470;49.868;8.660;2023-07-13T09:53:42;24.80;54.00
4910;DHT22;2470;49.868;8.660;2023-07-13T09:56:22;24.70;54.50
4910;DHT22;2470;49.868;8.660;2023-07-13T09:58:48;24.80;54.10
4910;DHT22;2470;49.868;8.660;2023-07-13T10:01:14;24.80;54.60
4910;DHT22;2470;49.868;8.660;2023-07-13T10:03:53;24.90;54.00
4910;DHT22;2470;49.868;8.660;2023-07-13T10:06:21;24.90;54.10
4910;DHT22;2470;49.868;8.660;2023-07-13T10:08:49;25.00;53.70
4910;DHT22;2470;49.868;8.660;2023-07-13T10:11:24;24.90;53.10
4910;DHT22;2470;49.868;8.660;2023-07-13T10:13:56;25.00;53.30
4910;DHT22;2470;49.868;8.660;2023-07-13T10:16:24;25.10;53.00
4910;DHT22;2470;49.868;8.660;2023-07-13T10:18:55;25.10;52.90
4910;DHT22;2470;49.868;8.660;2023-07-13T10:21:23;25.30;53.10
4910;DHT22;2470;49.868;8.660;2023-07-13T10:24:04;25.50;52.00
4910;DHT22;2470;49.868;8.660;2023-07-13T10:26:33;25.60;52.10
4910;DHT22;2470;49.868;8.660;2023-07-13T10:29:05;25.70;50.90
4910;DHT22;2470;49.868;8.660;2023-07-13T10:31:40;25.50;50.40
4910;DHT22;2470;49.868;8.660;2023-07-13T10:34:09;25.30;51.80
4910;DHT22;2470;49.868;8.660;2023-07-13T10:36:41;25.10;51.90
4910;DHT22;2470;49.868;8.660;2023-07-13T10:39:23;25.10;52.10
4910;DHT22;2470;49.868;8.660;2023-07-13T10:42:05;25.20;52.30
4910;DHT22;2470;49.868;8.660;2023-07-13T10:44:33;25.40;51.40
4910;DHT22;2470;49.868;8.660;2023-07-13T10:47:02;25.60;51.30
4910;DHT22;2470;49.868;8.660;2023-07-13T10:49:31;25.60;51.20
4910;DHT22;2470;49.868;8.660;2023-07-13T10:51:57;25.50;50.60
4910;DHT22;2470;49.868;8.660;2023-07-13T10:54:31;25.40;50.90
4910;DHT22;2470;49.868;8.660;2023-07-13T10:57:18;25.60;50.30
4910;DHT22;2470;49.868;8.660;2023-07-13T11:00:10;25.80;49.90
4910;DHT22;2470;49.868;8.660;2023-07-13T11:02:35;26.00;50.10
4910;DHT22;2470;49.868;8.660;2023-07-13T11:05:49;25.90;50.00
4910;DHT22;2470;49.868;8.660;2023-07-13T11:08:21;25.80;50.10
4910;DHT22;2470;49.868;8.660;2023-07-13T11:10:56;25.70;50.40
4910;DHT22;2470;49.868;8.660;2023-07-13T11:24:57;25.80;49.40
4910;DHT22;2470;49.868;8.660;2023-07-13T11:27:42;25.70;49.40
4910;DHT22;2470;49.868;8.660;2023-07-13T11:30:31;25.70;49.50
4910;DHT22;2470;49.868;8.660;2023-07-13T11:33:04;25.70;49.70
4910;DHT22;2470;49.868;8.660;2023-07-13T11:35:35;25.90;48.50
4910;DHT22;2470;49.868;8.660;2023-07-13T11:38:02;26.20;48.20
4910;DHT22;2470;49.868;8.660;2023-07-13T11:40:30;26.30;48.20
4910;DHT22;2470;49.868;8.660;2023-07-13T11:43:00;26.20;47.70
4910;DHT22;2470;49.868;8.660;2023-07-13T11:45:27;26.30;47.90
4910;DHT22;2470;49.868;8.660;2023-07-13T11:47:54;26.50;47.20
4910;DHT22;2470;49.868;8.660;2023-07-13T11:50:24;26.50;47.10
4910;DHT22;2470;49.868;8.660;2023-07-13T11:52:51;26.70;46.50
4910;DHT22;2470;49.868;8.660;2023-07-13T11:55:20;26.90;46.70
4910;DHT22;2470;49.868;8.660;2023-07-13T11:57:58;27.10;46.90
4910;DHT22;2470;49.868;8.660;2023-07-13T12:00:32;27.10;47.30
4910;DHT22;2470;49.868;8.660;2023-07-13T12:03:00;27.20;47.30
4910;DHT22;2470;49.868;8.660;2023-07-13T12:05:27;27.40;47.40
4910;DHT22;2470;49.868;8.660;2023-07-13T12:07:53;27.50;46.30
4910;DHT22;2470;49.868;8.660;2023-07-13T12:13:04;27.40;46.50
4910;DHT22;2470;49.868;8.660;2023-07-13T12:15:46;27.40;46.90
4910;DHT22;2470;49.868;8.660;2023-07-13T12:18:13;27.50;45.80
4910;DHT22;2470;49.868;8.660;2023-07-13T12:20:38;27.50;45.60
4910;DHT22;2470;49.868;8.660;2023-07-13T12:23:26;27.70;46.40
4910;DHT22;2470;49.868;8.660;2023-07-13T12:25:53;28.00;45.60
4910;DHT22;2470;49.868;8.660;2023-07-13T12:30:58;28.00;44.10
4910;DHT22;2470;49.868;8.660;2023-07-13T12:33:27;27.80;43.70
4910;DHT22;2470;49.868;8.660;2023-07-13T12:35:53;27.70;44.20
4910;DHT22;2470;49.868;8.660;2023-07-13T12:38:19;27.70;44.10
4910;DHT22;2470;49.868;8.660;2023-07-13T12:40:51;27.70;44.30
4910;DHT22;2470;49.868;8.660;2023-07-13T12:43:20;27.60;44.70
4910;DHT22;2470;49.868;8.660;2023-07-13T12:46:03;27.50;45.10
4910;DHT22;2470;49.868;8.660;2023-07-13T12:48:29;27.20;45.40
4910;DHT22;2470;49.868;8.660;2023-07-13T12:50:55;27.30;45.30
4910;DHT22;2470;49.868;8.660;2023-07-13T12:53:29;27.70;44.90
4910;DHT22;2470;49.868;8.660;2023-07-13T12:56:02;27.90;44.20
4910;DHT22;2470;49.868;8.660;2023-07-13T12:58:36;27.70;44.50
4910;DHT22;2470;49.868;8.660;2023-07-13T13:01:02;27.50;45.40
4910;DHT22;2470;49.868;8.660;2023-07-13T13:03:34;27.20;45.50
4910;DHT22;2470;49.868;8.660;2023-07-13T13:06:03;26.90;45.70
4910;DHT22;2470;49.868;8.660;2023-07-13T13:08:32;26.70;46.20
4910;DHT22;2470;49.868;8.660;2023-07-13T13:10:57;26.70;46.60
4910;DHT22;2470;49.868;8.660;2023-07-13T13:13:23;26.90;46.70
4910;DHT22;2470;49.868;8.660;2023-07-13T13:15:50;27.50;46.20
4910;DHT22;2470;49.868;8.660;2023-07-13T13:18:20;27.80;45.30
4910;DHT22;2470;49.868;8.660;2023-07-13T13:20:48;27.70;45.30
4910;DHT22;2470;49.868;8.660;2023-07-13T13:23:19;27.60;45.70
4910;DHT22;2470;49.868;8.660;2023-07-13T13:25:49;27.50;45.40
4910;DHT22;2470;49.868;8.660;2023-07-13T13:28:19;27.00;45.50
4910;DHT22;2470;49.868;8.660;2023-07-13T13:30:49;27.00;46.30
4910;DHT22;2470;49.868;8.660;2023-07-13T13:33:18;27.20;46.10
4910;DHT22;2470;49.868;8.660;2023-07-13T13:35:43;27.60;46.40
4910;DHT22;2470;49.868;8.660;2023-07-13T13:38:14;28.00;44.80
4910;DHT22;2470;49.868;8.660;2023-07-13T13:40:41;28.10;45.20
4910;DHT22;2470;49.868;8.660;2023-07-13T13:43:18;28.00;44.60
4910;DHT22;2470;49.868;8.660;2023-07-13T13:45:44;27.80;45.00
4910;DHT22;2470;49.868;8.660;2023-07-13T13:48:19;27.90;45.80
4910;DHT22;2470;49.868;8.660;2023-07-13T13:50:45;27.90;45.00
4910;DHT22;2470;49.868;8.660;2023-07-13T13:53:12;27.60;44.90
4910;DHT22;2470;49.868;8.660;2023-07-13T13:55:39;27.20;45.30
4910;DHT22;2470;49.868;8.660;2023-07-13T13:58:07;27.00;45.50
4910;DHT22;2470;49.868;8.660;2023-07-13T14:00:33;26.90;46.10
4910;DHT22;2470;49.868;8.660;2023-07-13T14:02:59;27.00;45.90
4910;DHT22;2470;49.868;8.660;2023-07-13T14:05:26;27.10;45.70
4910;DHT22;2470;49.868;8.660;2023-07-13T14:07:52;27.30;45.90
4910;DHT22;2470;49.868;8.660;2023-07-13T14:10:19;27.60;45.90
4910;DHT22;2470;49.868;8.660;2023-07-13T14:12:51;28.00;44.90
4910;DHT22;2470;49.868;8.660;2023-07-13T14:15:24;28.40;44.30
4910;DHT22;2470;49.868;8.660;2023-07-13T14:17:49;28.40;44.50
4910;DHT22;2470;49.868;8.660;2023-07-13T14:20:16;28.10;44.60
4910;DHT22;2470;49.868;8.660;2023-07-13T14:22:42;27.60;44.80
4910;DHT22;2470;49.868;8.660;2023-07-13T14:25:12;27.20;45.10
4910;DHT22;2470;49.868;8.660;2023-07-13T14:27:38;26.80;45.60
4910;DHT22;2470;49.868;8.660;2023-07-13T14:30:19;26.60;46.30
4910;DHT22;2470;49.868;8.660;2023-07-13T14:32:45;26.50;46.40
4910;DHT22;2470;49.868;8.660;2023-07-13T14:35:14;26.50;46.80
4910;DHT22;2470;49.868;8.660;2023-07-13T14:37:41;26.60;46.70
4910;DHT22;2470;49.868;8.660;2023-07-13T14:40:36;26.70;46.20
4910;DHT22;2470;49.868;8.660;2023-07-13T14:43:01;26.60;47.00
4910;DHT22;2470;49.868;8.660;2023-07-13T14:45:28;26.60;47.10
4910;DHT22;2470;49.868;8.660;2023-07-13T14:47:55;26.60;47.20
4910;DHT22;2470;49.868;8.660;2023-07-13T14:50:32;26.50;47.20
4910;DHT22;2470;49.868;8.660;2023-07-13T14:53:00;26.40;48.00
4910;DHT22;2470;49.868;8.660;2023-07-13T14:55:26;26.50;47.30
4910;DHT22;2470;49.868;8.660;2023-07-13T14:57:51;26.90;47.00
4910;DHT22;2470;49.868;8.660;2023-07-13T15:00:19;27.20;46.50
4910;DHT22;2470;49.868;8.660;2023-07-13T15:02:48;27.10;46.40
4910;DHT22;2470;49.868;8.660;2023-07-13T15:05:19;27.10;46.40
4910;DHT22;2470;49.868;8.660;2023-07-13T15:07:46;27.10;46.60
4910;DHT22;2470;49.868;8.660;2023-07-13T15:10:21;27.60;47.20
4910;DHT22;2470;49.868;8.660;2023-07-13T15:12:47;28.60;46.10
4910;DHT22;2470;49.868;8.660;2023-07-13T15:15:13;29.70;43.60
4910;DHT22;2470;49.868;8.660;2023-07-13T15:17:44;29.40;43.50
4910;DHT22;2470;49.868;8.660;2023-07-13T15:20:29;28.70;43.30
4910;DHT22;2470;49.868;8.660;2023-07-13T15:22:55;27.80;43.80
4910;DHT22;2470;49.868;8.660;2023-07-13T15:25:24;27.30;45.00
4910;DHT22;2470;49.868;8.660;2023-07-13T15:27:54;26.90;45.90
4910;DHT22;2470;49.868;8.660;2023-07-13T15:30:21;26.70;47.00
4910;DHT22;2470;49.868;8.660;2023-07-13T15:32:47;26.50;47.30
4910;DHT22;2470;49.868;8.660;2023-07-13T15:35:21;26.40;47.20
4910;DHT22;2470;49.868;8.660;2023-07-13T15:37:48;26.40;47.10
4910;DHT22;2470;49.868;8.660;2023-07-13T15:40:15;26.20;47.80
4910;DHT22;2470;49.868;8.660;2023-07-13T15:42:41;26.30;47.80
4910;DHT22;2470;49.868;8.660;2023-07-13T15:45:21;26.60;47.60
4910;DHT22;2470;49.868;8.660;2023-07-13T15:47:48;27.00;46.70
4910;DHT22;2470;49.868;8.660;2023-07-13T15:50:17;27.10;46.50
4910;DHT22;2470;49.868;8.660;2023-07-13T15:52:45;27.10;46.80
4910;DHT22;2470;49.868;8.660;2023-07-13T15:55:13;27.00;47.10
4910;DHT22;2470;49.868;8.660;2023-07-13T15:57:43;26.90;47.10
4910;DHT22;2470;49.868;8.660;2023-07-13T16:00:22;26.80;47.00
4910;DHT22;2470;49.868;8.660;2023-07-13T16:02:48;26.90;47.20
4910;DHT22;2470;49.868;8.660;2023-07-13T16:05:15;27.00;47.10
4910;DHT22;2470;49.868;8.660;2023-07-13T16:07:44;27.10;46.70
4910;DHT22;2470;49.868;8.660;2023-07-13T16:10:15;27.20;46.50
4910;DHT22;2470;49.868;8.660;2023-07-13T16:12:42;27.30;46.10
4910;DHT22;2470;49.868;8.660;2023-07-13T16:15:18;27.40;46.30
4910;DHT22;2470;49.868;8.660;2023-07-13T16:17:45;27.30;46.20
4910;DHT22;2470;49.868;8.660;2023-07-13T16:20:12;27.40;46.30
4910;DHT22;2470;49.868;8.660;2023-07-13T16:22:40;27.30;45.90
4910;DHT22;2470;49.868;8.660;2023-07-13T16:25:25;27.10;46.30
4910;DHT22;2470;49.868;8.660;2023-07-13T16:27:53;26.90;46.80
4910;DHT22;2470;49.868;8.660;2023-07-13T16:30:24;26.70;46.70
4910;DHT22;2470;49.868;8.660;2023-07-13T16:32:52;26.70;47.20
4910;DHT22;2470;49.868;8.660;2023-07-13T16:35:22;26.70;46.40
4910;DHT22;2470;49.868;8.660;2023-07-13T16:37:48;26.50;46.70
4910;DHT22;2470;49.868;8.660;2023-07-13T16:40:23;26.50;47.30
4910;DHT22;2470;49.868;8.660;2023-07-13T16:42:54;26.50;46.80